Time;durP1;ratioP1;P1;durP2;ratioP2;P2;SDS_P1;SDS_P2;PMS_P1;PMS_P2;Temp;Humidity;BMP_temperature;BMP_pressure;BME280_temperature;BME280_humidity;BME280_pressure;Samples;Min_cycle;Max_cycle;Signal;HPM_P1;HPM_P2
2024/01/04 00:00:23;;;;;;;4.13;1.33;;;5.90;99.90;;;;;;4985977;28;20224;-61
2024/01/04 00:02:50;;;;;;;2.20;1.00;;;5.90;99.90;;;;;;4983771;28;20180;-60
2024/01/04 00:05:16;;;;;;;4.97;1.57;;;5.90;99.90;;;;;;4991505;28;21086;-61
2024/01/04 00:07:41;;;;;;;1.53;1.00;;;5.90;99.90;;;;;;4995190;28;20750;-63
2024/01/04 00:10:08;;;;;;;2.03;0.90;;;5.90;99.90;;;;;;4996453;28;20432;-70
2024/01/04 00:12:33;;;;;;;3.20;1.00;;;5.80;99.90;;;;;;4998458;28;20181;-62
2024/01/04 00:14:59;;;;;;;1.80;1.37;;;5.80;99.90;;;;;;4990937;28;20472;-58
2024/01/04 00:17:25;;;;;;;2.80;0.90;;;5.80;99.90;;;;;;4985513;28;20186;-60
2024/01/04 00:19:51;;;;;;;3.33;1.00;;;5.80;99.90;;;;;;4983437;28;20234;-60
2024/01/04 00:22:16;;;;;;;1.90;1.13;;;5.80;99.90;;;;;;4987644;28;20413;-59
2024/01/04 00:24:43;;;;;;;2.43;1.20;;;5.90;99.90;;;;;;4973340;28;20598;-60
2024/01/04 00:27:08;;;;;;;2.13;1.20;;;5.90;99.90;;;;;;4987279;28;20249;-60
2024/01/04 00:29:34;;;;;;;4.60;1.30;;;5.90;99.90;;;;;;4987207;28;20432;-60
2024/01/04 00:31:59;;;;;;;5.27;1.23;;;5.80;99.90;;;;;;4989006;28;20901;-61
2024/01/04 00:34:25;;;;;;;5.10;1.30;;;5.80;99.90;;;;;;4988126;28;20237;-59
2024/01/04 00:36:51;;;;;;;1.30;1.00;;;5.80;99.90;;;;;;4984788;28;20187;-61
2024/01/04 00:39:17;;;;;;;6.23;1.00;;;5.80;99.90;;;;;;4987761;28;20199;-61
2024/01/04 00:41:43;;;;;;;1.10;1.00;;;5.80;99.90;;;;;;4988022;28;20699;-61
2024/01/04 00:44:09;;;;;;;2.73;1.10;;;5.80;99.90;;;;;;4988449;28;20444;-61
2024/01/04 00:46:34;;;;;;;4.27;1.10;;;5.80;99.90;;;;;;4983348;28;20189;-60
2024/01/04 00:49:00;;;;;;;1.23;1.03;;;5.80;99.90;;;;;;4989328;28;20272;-61
2024/01/04 00:51:25;;;;;;;4.40;1.30;;;5.80;99.90;;;;;;4987896;28;20192;-61
2024/01/04 00:53:51;;;;;;;2.90;1.20;;;5.80;99.90;;;;;;4985571;28;20219;-60
2024/01/04 00:56:17;;;;;;;3.83;1.20;;;5.90;99.90;;;;;;4984959;28;20201;-61
2024/01/04 00:58:42;;;;;;;2.67;1.20;;;5.90;99.90;;;;;;4988251;28;20286;-61
2024/01/04 01:01:08;;;;;;;2.80;1.20;;;5.90;99.90;;;;;;4988011;28;20272;-60
2024/01/04 01:03:33;;;;;;;5.70;1.60;;;5.90;99.90;;;;;;4990088;28;20209;-60
2024/01/04 01:05:59;;;;;;;9.93;1.43;;;5.90;99.90;;;;;;4986080;28;20177;-61
2024/01/04 01:08:25;;;;;;;3.70;1.30;;;5.90;99.90;;;;;;4989581;28;20723;-60
2024/01/04 01:10:51;;;;;;;7.23;1.47;;;5.90;99.90;;;;;;4987948;28;20181;-60
2024/01/04 01:13:20;;;;;;;5.33;1.30;;;5.90;99.90;;;;;;4987886;28;20233;-60
2024/01/04 01:15:48;;;;;;;2.93;1.10;;;5.90;99.90;;;;;;4985172;28;20428;-60
2024/01/04 01:18:14;;;;;;;1.93;1.03;;;5.90;99.90;;;;;;4983710;28;20436;-61
2024/01/04 01:20:40;;;;;;;2.00;1.20;;;5.90;99.90;;;;;;4987347;28;20429;-61
2024/01/04 01:23:05;;;;;;;1.70;1.00;;;5.90;99.90;;;;;;4988074;28;20184;-60
2024/01/04 01:25:31;;;;;;;2.07;0.90;;;5.90;99.90;;;;;;4987850;28;20280;-59
2024/01/04 01:27:56;;;;;;;2.20;1.23;;;5.90;99.90;;;;;;4986143;28;20331;-61
2024/01/04 01:30:22;;;;;;;4.47;1.00;;;5.90;99.90;;;;;;4986675;28;20188;-61
2024/01/04 01:32:47;;;;;;;1.33;0.97;;;5.80;99.90;;;;;;4986719;28;20205;-62
2024/01/04 01:35:14;;;;;;;2.07;1.10;;;5.80;99.90;;;;;;4988287;28;20637;-61
2024/01/04 01:37:39;;;;;;;3.07;1.23;;;5.80;99.90;;;;;;4981760;28;20177;-62
2024/01/04 01:40:06;;;;;;;2.10;1.10;;;5.80;99.90;;;;;;4988830;28;20451;-59
2024/01/04 01:42:32;;;;;;;5.30;1.40;;;5.80;99.90;;;;;;4984790;28;20578;-60
2024/01/04 01:44:59;;;;;;;4.20;1.00;;;5.80;99.90;;;;;;4985782;28;20519;-61
2024/01/04 01:47:26;;;;;;;2.00;1.10;;;5.80;99.90;;;;;;4983712;28;20201;-60
2024/01/04 01:49:52;;;;;;;2.30;1.00;;;5.90;99.90;;;;;;4986508;28;20467;-60
2024/01/04 01:52:18;;;;;;;1.27;1.10;;;5.80;99.90;;;;;;4984959;28;20967;-60
2024/01/04 01:54:47;;;;;;;2.17;1.10;;;5.90;99.90;;;;;;4988159;28;20547;-60
2024/01/04 01:57:13;;;;;;;2.03;1.00;;;5.80;99.90;;;;;;4986737;28;20431;-60
2024/01/04 01:59:39;;;;;;;4.20;1.10;;;5.80;99.90;;;;;;4987636;28;20424;-61
2024/01/04 02:02:06;;;;;;;2.03;1.20;;;5.80;99.90;;;;;;4983480;28;20527;-60
2024/01/04 02:04:32;;;;;;;4.13;1.10;;;5.80;99.90;;;;;;4988900;28;20504;-61
2024/01/04 02:06:58;;;;;;;1.27;0.90;;;5.80;99.90;;;;;;4983334;28;20814;-60
2024/01/04 02:09:23;;;;;;;2.50;1.17;;;5.80;99.90;;;;;;4988449;28;20655;-61
2024/01/04 02:11:49;;;;;;;1.20;1.10;;;5.70;99.90;;;;;;4986384;28;20424;-60
2024/01/04 02:14:14;;;;;;;11.63;1.40;;;5.70;99.90;;;;;;4984451;28;20220;-62
2024/01/04 02:16:41;;;;;;;1.90;1.20;;;5.70;99.90;;;;;;4986083;28;20185;-60
2024/01/04 02:19:09;;;;;;;1.10;1.00;;;5.80;99.90;;;;;;4984432;28;20208;-60
2024/01/04 02:21:37;;;;;;;1.17;0.97;;;5.70;99.90;;;;;;4985523;28;20444;-60
2024/01/04 02:24:04;;;;;;;2.50;1.10;;;5.70;99.90;;;;;;4987467;28;20841;-60
2024/01/04 02:26:30;;;;;;;2.50;1.00;;;5.70;99.90;;;;;;4985995;28;21126;-60
2024/01/04 02:28:56;;;;;;;1.90;1.00;;;5.70;99.90;;;;;;4987163;28;20436;-61
2024/01/04 02:31:21;;;;;;;3.43;1.00;;;5.70;99.90;;;;;;4984996;28;20275;-60
2024/01/04 02:33:47;;;;;;;3.43;1.30;;;5.70;99.90;;;;;;4985452;28;20625;-60
2024/01/04 02:36:13;;;;;;;5.73;1.33;;;5.70;99.90;;;;;;4982319;28;20169;-60
2024/01/04 02:38:38;;;;;;;1.70;1.13;;;5.70;99.90;;;;;;4987955;28;20239;-60
2024/01/04 02:41:04;;;;;;;2.30;0.90;;;5.70;99.90;;;;;;4982334;28;20440;-58
2024/01/04 02:43:30;;;;;;;2.50;1.40;;;5.70;99.90;;;;;;4985055;28;20205;-60
2024/01/04 02:45:55;;;;;;;3.67;1.10;;;5.70;99.90;;;;;;4981029;28;20304;-60
2024/01/04 02:48:21;;;;;;;3.63;1.10;;;5.70;99.90;;;;;;4987401;28;20279;-60
2024/01/04 02:50:47;;;;;;;3.13;0.90;;;5.70;99.90;;;;;;4986605;28;20191;-60
2024/01/04 02:53:12;;;;;;;0.93;0.93;;;5.60;99.90;;;;;;4978254;28;20456;-60
2024/01/04 02:55:38;;;;;;;3.83;1.10;;;5.60;99.90;;;;;;4982358;28;20186;-61
2024/01/04 02:58:04;;;;;;;4.83;1.47;;;5.60;99.90;;;;;;4987855;28;20170;-59
2024/01/04 03:00:29;;;;;;;7.30;1.30;;;5.60;99.90;;;;;;4986876;28;20176;-61
2024/01/04 03:02:55;;;;;;;2.10;1.00;;;5.60;99.90;;;;;;4986083;28;20177;-60
2024/01/04 03:05:21;;;;;;;0.93;0.90;;;5.60;99.90;;;;;;4986396;28;20659;-59
2024/01/04 03:07:46;;;;;;;2.00;1.03;;;5.60;99.90;;;;;;4987062;28;20181;-60
2024/01/04 03:10:12;;;;;;;7.20;1.20;;;5.60;99.90;;;;;;4983251;28;20682;-58
2024/01/04 03:12:38;;;;;;;1.20;1.00;;;5.60;99.90;;;;;;4982160;28;20193;-60
2024/01/04 03:15:06;;;;;;;1.73;1.00;;;5.60;99.90;;;;;;4985887;28;20211;-59
2024/01/04 03:17:32;;;;;;;2.40;1.10;;;5.60;99.90;;;;;;4986467;28;20412;-59
2024/01/04 03:19:58;;;;;;;4.47;1.10;;;5.60;99.90;;;;;;4988055;28;20410;-60
2024/01/04 03:22:23;;;;;;;4.20;1.20;;;5.60;99.90;;;;;;4985211;28;20209;-60
2024/01/04 03:24:49;;;;;;;1.67;1.03;;;5.60;99.90;;;;;;4984662;28;20204;-60
2024/01/04 03:27:14;;;;;;;2.80;2.03;;;5.60;99.90;;;;;;4983768;28;20271;-60
2024/01/04 03:29:40;;;;;;;1.33;0.77;;;5.60;99.90;;;;;;4986580;28;20173;-60
2024/01/04 03:32:06;;;;;;;1.77;0.87;;;5.60;99.90;;;;;;4983256;28;20243;-59
2024/01/04 03:34:33;;;;;;;1.90;0.90;;;5.60;99.90;;;;;;4986038;28;20220;-61
2024/01/04 03:36:58;;;;;;;2.60;1.00;;;5.60;99.90;;;;;;4986473;28;20436;-60
2024/01/04 03:39:24;;;;;;;3.47;1.30;;;5.60;99.90;;;;;;4990814;28;21170;-60
2024/01/04 03:41:49;;;;;;;5.60;2.70;;;5.60;99.90;;;;;;4990692;28;20189;-61
2024/01/04 03:44:15;;;;;;;1.30;1.20;;;5.60;99.90;;;;;;4987927;28;20204;-60
2024/01/04 03:46:41;;;;;;;0.83;0.83;;;5.60;99.90;;;;;;4983593;28;20188;-61
2024/01/04 03:49:06;;;;;;;4.80;1.40;;;5.60;99.90;;;;;;4989550;28;20717;-60
2024/01/04 03:51:32;;;;;;;3.13;1.10;;;5.60;99.90;;;;;;4989555;28;20191;-61
2024/01/04 03:53:58;;;;;;;2.40;1.00;;;5.50;99.90;;;;;;4986702;28;20208;-60
2024/01/04 03:56:24;;;;;;;5.10;1.40;;;5.60;99.90;;;;;;4987947;28;20646;-60
2024/01/04 03:58:49;;;;;;;3.87;1.20;;;5.60;99.90;;;;;;4988214;28;20412;-60
2024/01/04 04:01:15;;;;;;;1.70;1.13;;;5.60;99.90;;;;;;4986550;28;20647;-60
2024/01/04 04:03:41;;;;;;;5.50;1.20;;;5.60;99.90;;;;;;4989221;28;20229;-61
2024/01/04 04:06:07;;;;;;;1.10;1.00;;;5.60;99.90;;;;;;4984448;28;20184;-61
2024/01/04 04:08:33;;;;;;;1.07;0.97;;;5.60;99.90;;;;;;4990109;28;20181;-60
2024/01/04 04:10:59;;;;;;;3.73;0.80;;;5.60;99.90;;;;;;4990271;28;20416;-61
2024/01/04 04:13:25;;;;;;;2.30;1.10;;;5.60;99.90;;;;;;4989810;28;20554;-60
2024/01/04 04:15:51;;;;;;;1.80;0.83;;;5.60;99.90;;;;;;4984098;28;20181;-61
2024/01/04 04:18:16;;;;;;;1.90;0.93;;;5.60;99.90;;;;;;4989029;28;20209;-61
2024/01/04 04:20:42;;;;;;;2.80;1.30;;;5.60;99.90;;;;;;4986990;28;20674;-60
2024/01/04 04:23:08;;;;;;;2.30;1.07;;;5.60;99.90;;;;;;4985133;28;20185;-59
2024/01/04 04:25:36;;;;;;;3.80;1.00;;;5.60;99.90;;;;;;4989258;28;20612;-61
2024/01/04 04:28:02;;;;;;;2.40;1.00;;;5.60;99.90;;;;;;4987743;28;20184;-60
2024/01/04 04:30:28;;;;;;;1.37;0.80;;;5.60;99.90;;;;;;4983269;28;21208;-60
2024/01/04 04:32:54;;;;;;;1.43;0.80;;;5.70;99.90;;;;;;4988185;28;20950;-60
2024/01/04 04:35:19;;;;;;;3.10;1.00;;;5.70;99.90;;;;;;4986486;28;20452;-60
2024/01/04 04:37:45;;;;;;;3.67;1.10;;;5.70;99.90;;;;;;4987726;28;20211;-59
2024/01/04 04:40:11;;;;;;;1.00;0.90;;;5.70;99.90;;;;;;4985543;28;20181;-59
2024/01/04 04:42:36;;;;;;;1.83;0.90;;;5.70;99.90;;;;;;4988226;28;20185;-60
2024/01/04 04:45:02;;;;;;;0.83;0.83;;;5.70;99.90;;;;;;4987943;28;20436;-60
2024/01/04 04:47:28;;;;;;;1.93;1.13;;;5.70;99.90;;;;;;4988574;28;20675;-60
2024/01/04 04:49:53;;;;;;;1.77;0.80;;;5.70;99.90;;;;;;4983757;28;20677;-60
2024/01/04 04:52:19;;;;;;;2.53;1.00;;;5.70;99.90;;;;;;4983319;28;20316;-60
2024/01/04 04:54:44;;;;;;;4.83;0.90;;;5.70;99.90;;;;;;4985485;28;20248;-60
2024/01/04 04:57:10;;;;;;;4.70;1.10;;;5.70;99.90;;;;;;4971509;28;20178;-60
2024/01/04 04:59:36;;;;;;;2.47;1.20;;;5.70;99.90;;;;;;4988787;28;20587;-61
2024/01/04 05:02:01;;;;;;;1.50;1.33;;;5.70;99.90;;;;;;4976531;28;20206;-62
2024/01/04 05:04:27;;;;;;;0.90;0.90;;;5.70;99.90;;;;;;4983528;28;20193;-62
2024/01/04 05:06:52;;;;;;;1.43;1.10;;;5.70;99.90;;;;;;4976423;28;20270;-63
2024/01/04 05:09:18;;;;;;;1.70;0.90;;;5.70;99.90;;;;;;4979308;28;20181;-60
2024/01/04 05:11:44;;;;;;;4.20;1.07;;;5.70;99.90;;;;;;4985469;28;20775;-54
2024/01/04 05:14:11;;;;;;;1.50;1.00;;;5.70;99.90;;;;;;4981738;28;20216;-56
2024/01/04 05:16:36;;;;;;;4.70;1.30;;;5.70;99.90;;;;;;4982269;28;20181;-56
2024/01/04 05:19:02;;;;;;;1.23;0.80;;;5.70;99.90;;;;;;4981158;28;20446;-55
2024/01/04 05:21:33;;;;;;;1.70;0.90;;;5.70;99.90;;;;;;4982301;28;20169;-61
2024/01/04 05:23:59;;;;;;;3.03;1.20;;;5.80;99.90;;;;;;4985824;28;20196;-61
2024/01/04 05:26:25;;;;;;;1.30;1.20;;;5.80;99.90;;;;;;4980542;28;20947;-61
2024/01/04 05:28:51;;;;;;;4.30;1.50;;;5.70;99.90;;;;;;4982322;28;20211;-60
2024/01/04 05:31:19;;;;;;;2.50;1.03;;;5.70;99.90;;;;;;4983256;28;20185;-60
2024/01/04 05:33:45;;;;;;;3.20;1.17;;;5.70;99.90;;;;;;4980953;28;20221;-59
2024/01/04 05:36:11;;;;;;;3.93;1.13;;;5.70;99.90;;;;;;4982408;28;20455;-61
2024/01/04 05:38:36;;;;;;;2.37;1.13;;;5.70;99.90;;;;;;4975851;28;20479;-63
2024/01/04 05:41:04;;;;;;;7.20;1.40;;;5.70;99.90;;;;;;4982453;28;20275;-65
2024/01/04 05:43:30;;;;;;;7.00;1.20;;;5.70;99.90;;;;;;4981544;28;20205;-63
2024/01/04 05:45:56;;;;;;;3.50;1.40;;;5.70;99.90;;;;;;4983832;28;20810;-63
2024/01/04 05:48:22;;;;;;;8.53;1.40;;;5.60;99.90;;;;;;4985643;28;20440;-62
2024/01/04 05:50:49;;;;;;;3.37;1.30;;;5.70;99.90;;;;;;4983985;28;20186;-62
2024/01/04 05:53:15;;;;;;;5.23;1.30;;;5.70;99.90;;;;;;4985041;28;20229;-62
2024/01/04 05:55:40;;;;;;;2.57;1.13;;;5.70;99.90;;;;;;4984188;28;20462;-63
2024/01/04 05:58:06;;;;;;;2.53;1.40;;;5.70;99.90;;;;;;4981592;28;20178;-63
2024/01/04 06:00:31;;;;;;;2.70;1.20;;;5.60;99.90;;;;;;4983539;28;20732;-63
2024/01/04 06:02:57;;;;;;;3.30;1.20;;;5.60;99.90;;;;;;4989029;28;20181;-63
2024/01/04 06:05:22;;;;;;;1.90;1.30;;;5.60;99.90;;;;;;4988521;28;20288;-63
2024/01/04 06:07:48;;;;;;;4.93;1.20;;;5.60;99.90;;;;;;4987114;28;20186;-64
2024/01/04 06:10:14;;;;;;;2.60;0.90;;;5.60;99.90;;;;;;4988422;28;20179;-64
2024/01/04 06:12:39;;;;;;;2.23;1.13;;;5.50;99.90;;;;;;4982763;28;20875;-64
2024/01/04 06:15:05;;;;;;;2.30;1.00;;;5.50;99.90;;;;;;4988164;28;20216;-62
2024/01/04 06:17:31;;;;;;;3.90;1.00;;;5.50;99.90;;;;;;4981725;28;20181;-62
2024/01/04 06:19:56;;;;;;;7.23;1.37;;;5.50;99.90;;;;;;4988809;28;20444;-63
2024/01/04 06:22:22;;;;;;;4.00;1.00;;;5.50;99.90;;;;;;4988171;28;20272;-63
2024/01/04 06:24:48;;;;;;;1.00;0.90;;;5.50;99.90;;;;;;4988945;28;20205;-63
2024/01/04 06:27:13;;;;;;;3.93;1.20;;;5.50;99.90;;;;;;4985710;28;20204;-64
2024/01/04 06:29:39;;;;;;;1.17;1.00;;;5.50;99.90;;;;;;4982636;28;20559;-64
2024/01/04 06:32:05;;;;;;;2.30;1.40;;;5.50;99.90;;;;;;4987651;28;20204;-64
2024/01/04 06:34:31;;;;;;;2.93;1.43;;;5.50;99.90;;;;;;4983906;28;20694;-64
2024/01/04 06:36:56;;;;;;;4.50;2.37;;;5.50;99.90;;;;;;4984971;28;20534;-63
2024/01/04 06:39:22;;;;;;;4.00;2.30;;;5.40;99.90;;;;;;4984475;28;20419;-63
2024/01/04 06:41:47;;;;;;;6.33;2.10;;;5.40;99.90;;;;;;4979500;28;20640;-62
2024/01/04 06:44:13;;;;;;;6.50;2.47;;;5.40;99.90;;;;;;4985571;28;20193;-63
2024/01/04 06:46:39;;;;;;;10.53;2.53;;;5.40;99.90;;;;;;4987146;28;20243;-63
2024/01/04 06:49:05;;;;;;;6.73;2.97;;;5.30;99.90;;;;;;4985231;28;20808;-63
2024/01/04 06:51:31;;;;;;;8.63;4.03;;;5.30;99.90;;;;;;4979470;28;20284;-64
2024/01/04 06:53:56;;;;;;;6.37;2.57;;;5.30;99.90;;;;;;4986281;28;20555;-63
2024/01/04 06:56:22;;;;;;;6.13;2.33;;;5.30;99.90;;;;;;4979859;28;20170;-64
2024/01/04 06:58:48;;;;;;;17.07;3.60;;;5.30;99.90;;;;;;4979939;28;20181;-64
2024/01/04 07:01:13;;;;;;;6.87;3.43;;;5.30;99.90;;;;;;4979011;28;20215;-64
2024/01/04 07:03:39;;;;;;;15.53;4.37;;;5.30;99.90;;;;;;4978951;28;20222;-63
2024/01/04 07:06:06;;;;;;;7.37;3.53;;;5.30;99.90;;;;;;4984788;28;20205;-64
2024/01/04 07:08:31;;;;;;;6.70;2.00;;;5.30;99.90;;;;;;4980715;28;21259;-64
2024/01/04 07:10:57;;;;;;;5.27;1.83;;;5.30;99.90;;;;;;4980276;28;20474;-62
2024/01/04 07:13:22;;;;;;;4.40;2.17;;;5.30;99.90;;;;;;4979593;28;20608;-64
2024/01/04 07:15:49;;;;;;;7.30;2.30;;;5.30;99.90;;;;;;4985749;28;20255;-64
2024/01/04 07:18:15;;;;;;;3.60;2.30;;;5.30;99.90;;;;;;4986387;28;20181;-64
2024/01/04 07:20:41;;;;;;;10.13;3.07;;;5.30;99.90;;;;;;4989264;28;20443;-64
2024/01/04 07:23:07;;;;;;;17.40;6.57;;;5.40;99.90;;;;;;4981215;28;20170;-64
2024/01/04 07:25:34;;;;;;;14.83;5.87;;;5.40;99.90;;;;;;4981925;28;20436;-63
2024/01/04 07:28:00;;;;;;;11.30;4.33;;;5.40;99.90;;;;;;4988676;28;20173;-64
2024/01/04 07:30:25;;;;;;;5.50;2.73;;;5.40;99.90;;;;;;4988174;28;20423;-64
2024/01/04 07:32:51;;;;;;;4.57;2.60;;;5.40;99.90;;;;;;4985720;28;20493;-64
2024/01/04 07:35:19;;;;;;;3.10;2.00;;;5.40;99.90;;;;;;4982303;28;20693;-64
2024/01/04 07:37:44;;;;;;;5.00;2.27;;;5.40;99.90;;;;;;4985605;28;20204;-64
2024/01/04 07:40:11;;;;;;;6.70;2.53;;;5.40;99.90;;;;;;4987317;28;20440;-64
2024/01/04 07:42:36;;;;;;;3.40;2.47;;;5.50;99.90;;;;;;4983362;28;20636;-63
2024/01/04 07:45:03;;;;;;;6.13;2.53;;;5.40;99.90;;;;;;4985090;28;20443;-63
2024/01/04 07:47:28;;;;;;;10.63;2.57;;;5.50;99.90;;;;;;4980373;28;20177;-64
2024/01/04 07:49:54;;;;;;;7.80;3.93;;;5.50;99.90;;;;;;4987757;28;20859;-63
2024/01/04 07:52:19;;;;;;;8.00;3.90;;;5.50;99.90;;;;;;4986511;28;20185;-64
2024/01/04 07:54:45;;;;;;;7.73;3.93;;;5.50;99.90;;;;;;4986782;28;20208;-63
2024/01/04 07:57:12;;;;;;;5.93;2.53;;;5.50;99.90;;;;;;4981156;28;20245;-64
2024/01/04 07:59:37;;;;;;;5.70;2.83;;;5.50;99.90;;;;;;4983867;28;20181;-62
2024/01/04 08:02:03;;;;;;;10.87;2.10;;;5.50;99.90;;;;;;4989931;28;20478;-64
2024/01/04 08:04:29;;;;;;;3.23;1.70;;;5.50;99.90;;;;;;4983862;28;20189;-64
2024/01/04 08:06:55;;;;;;;1.90;1.43;;;5.50;99.90;;;;;;4984571;28;20564;-63
2024/01/04 08:09:21;;;;;;;5.10;1.90;;;5.50;99.90;;;;;;4982099;28;20331;-63
2024/01/04 08:11:46;;;;;;;2.83;1.40;;;5.50;99.90;;;;;;4992684;28;20439;-64
2024/01/04 08:14:12;;;;;;;8.27;2.20;;;5.50;99.90;;;;;;4981651;28;20291;-64
2024/01/04 08:16:38;;;;;;;4.83;1.60;;;5.50;99.90;;;;;;4979326;28;20266;-64
2024/01/04 08:19:04;;;;;;;3.30;1.53;;;5.50;99.90;;;;;;4980490;28;20516;-63
2024/01/04 08:21:30;;;;;;;2.40;1.30;;;5.60;99.90;;;;;;4986500;28;20479;-64
2024/01/04 08:23:56;;;;;;;4.70;1.63;;;5.60;99.90;;;;;;4983503;28;20720;-64
2024/01/04 08:26:22;;;;;;;4.60;1.87;;;5.60;99.90;;;;;;4981097;28;20426;-64
2024/01/04 08:28:47;;;;;;;3.83;1.53;;;5.60;99.90;;;;;;4989280;28;20175;-64
2024/01/04 08:31:13;;;;;;;8.60;2.27;;;5.70;99.90;;;;;;4980008;28;20436;-64
2024/01/04 08:33:38;;;;;;;4.90;2.10;;;5.70;99.90;;;;;;4988012;28;20205;-63
2024/01/04 08:36:04;;;;;;;4.57;1.63;;;5.70;99.90;;;;;;4987101;28;20666;-64
2024/01/04 08:38:30;;;;;;;10.23;2.00;;;5.70;99.90;;;;;;4985375;28;20223;-65
2024/01/04 08:40:56;;;;;;;4.27;1.80;;;5.70;99.90;;;;;;4983470;28;20244;-64
2024/01/04 08:43:22;;;;;;;8.00;2.27;;;5.70;99.90;;;;;;4983534;28;20424;-65
2024/01/04 08:45:48;;;;;;;2.63;1.53;;;5.70;99.90;;;;;;4988378;28;20204;-65
2024/01/04 08:48:13;;;;;;;5.43;1.77;;;5.70;99.90;;;;;;4987453;28;20635;-63
2024/01/04 08:50:39;;;;;;;4.90;1.90;;;5.70;99.90;;;;;;4984744;28;20437;-64
2024/01/04 08:53:05;;;;;;;4.97;1.63;;;5.70;99.90;;;;;;4981276;28;20186;-64
2024/01/04 08:55:30;;;;;;;4.60;1.70;;;5.70;99.90;;;;;;4986550;28;20608;-64
2024/01/04 08:57:57;;;;;;;5.67;1.60;;;5.70;99.90;;;;;;4982605;28;20275;-63
2024/01/04 09:00:23;;;;;;;4.10;1.70;;;5.80;99.90;;;;;;4981792;28;20185;-63
2024/01/04 09:02:49;;;;;;;2.87;1.43;;;5.80;99.90;;;;;;4980520;28;20420;-64
2024/01/04 09:05:14;;;;;;;4.60;1.67;;;5.80;99.90;;;;;;4980005;28;20455;-64
2024/01/04 09:07:40;;;;;;;10.43;2.40;;;5.90;99.90;;;;;;4981955;28;20185;-64
2024/01/04 09:10:06;;;;;;;4.50;1.63;;;5.90;99.90;;;;;;4982892;28;20185;-63
2024/01/04 09:12:32;;;;;;;6.50;2.50;;;5.90;99.90;;;;;;4982801;28;20181;-64
2024/01/04 09:14:58;;;;;;;8.03;1.90;;;5.90;99.90;;;;;;4981932;28;20461;-64
2024/01/04 09:17:25;;;;;;;3.63;1.63;;;6.00;99.90;;;;;;4979864;28;20178;-63
2024/01/04 09:19:51;;;;;;;3.87;2.07;;;6.00;99.90;;;;;;4988468;28;20192;-64
2024/01/04 09:22:17;;;;;;;5.53;1.63;;;6.00;99.90;;;;;;4982296;28;20417;-64
2024/01/04 09:24:43;;;;;;;5.70;1.73;;;6.10;99.90;;;;;;4978040;28;20437;-63
2024/01/04 09:27:08;;;;;;;8.10;2.20;;;6.10;99.90;;;;;;4979370;28;20173;-61
2024/01/04 09:29:34;;;;;;;7.40;2.20;;;6.10;99.90;;;;;;4985812;28;20264;-62
2024/01/04 09:32:01;;;;;;;5.20;1.80;;;6.20;99.90;;;;;;4987009;28;20177;-64
2024/01/04 09:34:27;;;;;;;8.57;1.97;;;6.20;99.90;;;;;;4979677;28;20266;-64
2024/01/04 09:36:54;;;;;;;12.07;2.30;;;6.20;99.90;;;;;;4980243;28;20499;-56
2024/01/04 09:39:20;;;;;;;9.57;2.20;;;6.20;99.90;;;;;;4984194;28;20449;-64
2024/01/04 09:41:47;;;;;;;5.40;2.30;;;6.30;99.90;;;;;;4983722;28;20423;-63
2024/01/04 09:44:14;;;;;;;6.83;1.83;;;6.40;99.90;;;;;;4983081;28;20523;-63
2024/01/04 09:46:41;;;;;;;8.17;2.43;;;6.40;99.90;;;;;;4984928;28;20421;-64
2024/01/04 09:49:08;;;;;;;5.87;1.90;;;6.50;99.90;;;;;;4976284;28;21295;-64
2024/01/04 09:51:39;;;;;;;3.90;1.60;;;6.60;99.90;;;;;;4982924;28;20432;-63
2024/01/04 09:54:09;;;;;;;5.30;1.80;;;6.60;99.90;;;;;;4985892;28;20451;-64
2024/01/04 09:56:50;;;;;;;6.93;1.73;;;6.60;99.90;;;;;;4983717;28;20417;-65
2024/01/04 09:59:16;;;;;;;5.17;1.40;;;6.70;99.90;;;;;;4980838;28;20528;-61
2024/01/04 10:01:43;;;;;;;10.37;2.33;;;6.70;99.90;;;;;;4982098;28;20496;-63
2024/01/04 10:04:13;;;;;;;4.80;1.60;;;6.70;99.90;;;;;;4983344;28;20475;-63
2024/01/04 10:06:43;;;;;;;5.30;1.80;;;6.80;99.90;;;;;;4979219;28;20531;-63
2024/01/04 10:09:26;;;;;;;3.93;1.60;;;6.90;99.90;;;;;;4978538;28;21085;-61
2024/01/04 10:11:58;;;;;;;2.90;1.53;;;7.10;99.90;;;;;;4975227;28;20428;-63
2024/01/04 10:14:25;;;;;;;5.43;1.60;;;7.10;99.90;;;;;;4974577;28;20471;-64
2024/01/04 10:16:51;;;;;;;6.30;1.63;;;7.20;99.90;;;;;;4983876;28;20476;-63
2024/01/04 10:19:17;;;;;;;7.53;2.07;;;7.30;99.90;;;;;;4992370;28;20429;-64
2024/01/04 10:21:43;;;;;;;8.43;1.97;;;7.40;99.90;;;;;;4984682;28;20435;-62
2024/01/04 10:24:13;;;;;;;4.73;1.47;;;7.50;99.90;;;;;;4982563;28;20580;-63
2024/01/04 10:26:39;;;;;;;1.90;1.00;;;7.50;99.90;;;;;;4977934;28;20185;-63
2024/01/04 10:29:06;;;;;;;1.43;1.10;;;7.50;99.90;;;;;;4981669;28;20879;-64
2024/01/04 10:31:32;;;;;;;3.90;1.77;;;7.70;99.90;;;;;;4981554;28;20185;-64
2024/01/04 10:33:59;;;;;;;4.83;1.90;;;7.70;99.90;;;;;;4982621;28;20472;-64
2024/01/04 10:36:28;;;;;;;5.07;1.50;;;7.70;99.90;;;;;;4978735;28;20184;-64
2024/01/04 10:39:08;;;;;;;2.80;1.47;;;7.70;99.90;;;;;;4980071;28;20479;-62
2024/01/04 10:41:33;;;;;;;1.57;1.43;;;7.70;99.90;;;;;;4986497;28;20927;-64
2024/01/04 10:44:08;;;;;;;4.93;1.47;;;7.70;99.90;;;;;;4986816;28;20503;-64
2024/01/04 10:46:34;;;;;;;2.50;1.30;;;7.60;99.90;;;;;;4978938;28;20568;-64
2024/01/04 10:49:02;;;;;;;3.70;1.40;;;7.60;99.90;;;;;;4982058;28;20436;-64
2024/01/04 10:51:31;;;;;;;4.33;1.47;;;7.60;99.90;;;;;;4984359;28;20438;-64
2024/01/04 10:54:01;;;;;;;4.20;1.30;;;7.70;99.90;;;;;;4981889;28;20459;-63
2024/01/04 10:56:32;;;;;;;5.23;1.57;;;7.80;99.90;;;;;;4982758;28;20425;-63
2024/01/04 10:58:59;;;;;;;4.20;1.27;;;7.90;99.90;;;;;;4985891;28;20475;-64
2024/01/04 11:01:25;;;;;;;4.13;1.40;;;8.10;99.90;;;;;;4985811;28;20817;-64
2024/01/04 11:03:54;;;;;;;2.07;1.20;;;8.20;99.90;;;;;;4980261;28;21110;-63
2024/01/04 11:06:22;;;;;;;4.87;1.80;;;8.40;99.90;;;;;;4984280;28;20506;-65
2024/01/04 11:08:48;;;;;;;5.70;1.53;;;8.30;99.90;;;;;;4994041;28;20432;-68
2024/01/04 11:11:14;;;;;;;5.17;1.80;;;8.30;99.90;;;;;;4998682;28;20487;-64
2024/01/04 11:13:41;;;;;;;3.93;1.50;;;8.20;99.90;;;;;;4987246;28;20496;-64
2024/01/04 11:16:21;;;;;;;3.73;1.37;;;8.10;99.90;;;;;;4980182;28;20790;-64
2024/01/04 11:19:03;;;;;;;4.03;1.57;;;7.90;99.90;;;;;;4982960;28;20518;-65
2024/01/04 11:21:47;;;;;;;8.47;1.53;;;7.90;99.90;;;;;;4982521;28;20482;-64
2024/01/04 11:24:29;;;;;;;2.60;1.20;;;7.80;99.90;;;;;;4991924;28;20436;-66
2024/01/04 11:26:58;;;;;;;4.63;1.30;;;7.80;99.90;;;;;;4979820;28;20511;-65
2024/01/04 11:29:26;;;;;;;5.10;1.83;;;7.70;99.90;;;;;;4984664;28;20471;-65
2024/01/04 11:31:53;;;;;;;4.47;2.40;;;7.50;99.90;;;;;;4978818;28;20432;-62
2024/01/04 11:34:19;;;;;;;8.90;3.00;;;7.60;99.90;;;;;;4979167;28;20503;-64
2024/01/04 11:36:44;;;;;;;3.33;1.43;;;7.60;99.90;;;;;;4983802;28;21794;-65
2024/01/04 11:39:10;;;;;;;4.73;1.50;;;7.70;99.90;;;;;;4980894;28;20691;-63
2024/01/04 11:41:37;;;;;;;4.70;1.37;;;7.80;99.90;;;;;;4981362;28;20178;-65
2024/01/04 11:44:14;;;;;;;5.23;1.97;;;7.80;99.90;;;;;;4983144;28;20205;-63
2024/01/04 11:46:41;;;;;;;2.80;1.40;;;7.80;99.90;;;;;;4980676;28;20451;-65
2024/01/04 11:49:06;;;;;;;3.40;1.10;;;7.80;99.90;;;;;;4982734;28;20464;-64
2024/01/04 11:51:35;;;;;;;2.53;1.30;;;7.80;99.90;;;;;;4985790;28;20464;-64
2024/01/04 11:54:02;;;;;;;1.67;1.17;;;7.80;99.90;;;;;;4986438;28;20223;-64
2024/01/04 11:56:28;;;;;;;2.67;1.10;;;7.70;99.90;;;;;;4974456;28;20436;-64
2024/01/04 11:58:53;;;;;;;1.37;1.10;;;7.70;99.90;;;;;;4983476;28;20439;-65
2024/01/04 12:01:25;;;;;;;1.30;0.90;;;7.80;99.90;;;;;;4986504;28;20610;-64
2024/01/04 12:03:54;;;;;;;1.40;1.20;;;7.70;99.90;;;;;;4989239;28;20201;-65
2024/01/04 12:06:23;;;;;;;1.10;1.00;;;7.70;99.90;;;;;;4988152;28;20965;-64
2024/01/04 12:08:49;;;;;;;2.13;1.30;;;7.60;99.90;;;;;;4987519;28;20483;-64
2024/01/04 12:11:16;;;;;;;1.37;1.00;;;7.60;99.90;;;;;;4986871;28;20416;-64
2024/01/04 12:13:41;;;;;;;2.67;0.90;;;7.60;99.90;;;;;;4987087;28;20571;-64
2024/01/04 12:16:07;;;;;;;2.27;0.90;;;7.50;99.90;;;;;;4984964;28;21599;-64
2024/01/04 12:18:33;;;;;;;1.47;0.90;;;7.50;99.90;;;;;;4986875;28;20584;-63
2024/01/04 12:21:03;;;;;;;5.10;1.30;;;7.50;99.90;;;;;;4986865;28;20798;-64
2024/01/04 12:23:29;;;;;;;3.13;1.00;;;7.60;99.90;;;;;;4985715;28;20424;-64
2024/01/04 12:25:55;;;;;;;3.03;1.43;;;7.60;99.90;;;;;;4983453;28;20440;-61
2024/01/04 12:28:21;;;;;;;1.87;1.20;;;7.60;99.90;;;;;;4985508;28;20434;-64
2024/01/04 12:30:46;;;;;;;7.23;1.20;;;7.60;99.90;;;;;;4981184;28;20699;-64
2024/01/04 12:33:12;;;;;;;2.43;1.10;;;7.50;99.90;;;;;;4989349;28;20189;-64
2024/01/04 12:35:38;;;;;;;6.30;1.30;;;7.50;99.90;;;;;;4985670;28;20292;-64
2024/01/04 12:38:07;;;;;;;1.50;1.40;;;7.50;99.90;;;;;;4988396;28;20654;-63
2024/01/04 12:40:45;;;;;;;4.20;1.57;;;7.50;99.90;;;;;;4985301;28;20433;-64
2024/01/04 12:43:14;;;;;;;3.13;1.03;;;7.50;99.90;;;;;;4988827;28;20492;-63
2024/01/04 12:45:40;;;;;;;6.43;1.20;;;7.50;99.90;;;;;;4978543;28;20533;-64
2024/01/04 12:48:07;;;;;;;1.43;1.10;;;7.60;99.90;;;;;;4980866;28;20523;-63
2024/01/04 12:50:37;;;;;;;1.90;1.10;;;7.60;99.90;;;;;;4988279;28;20182;-64
2024/01/04 12:53:05;;;;;;;2.70;1.20;;;7.70;99.90;;;;;;4988272;28;20420;-64